sensor_id;sensor_type;location;lat;lon;timestamp;P1;durP1;ratioP1;P2;durP2;ratioP2
7450;SDS011;3767;42.688;23.360;2022-08-01T00:02:11;4.05;;;3.75;;
7450;SDS011;3767;42.688;23.360;2022-08-01T00:04:38;4.78;;;4.38;;
7450;SDS011;3767;42.688;23.360;2022-08-01T00:07:04;4.93;;;4.53;;
7450;SDS011;3767;42.688;23.360;2022-08-01T00:09:31;6.70;;;4.68;;
7450;SDS011;3767;42.688;23.360;2022-08-01T00:11:57;5.05;;;4.75;;
7450;SDS011;3767;42.688;23.360;2022-08-01T00:14:24;5.88;;;5.38;;
7450;SDS011;3767;42.688;23.360;2022-08-01T00:16:52;6.45;;;5.93;;
7450;SDS011;3767;42.688;23.360;2022-08-01T00:19:18;7.25;;;6.68;;
7450;SDS011;3767;42.688;23.360;2022-08-01T00:21:45;6.68;;;6.18;;
7450;SDS011;3767;42.688;23.360;2022-08-01T00:24:11;6.85;;;6.38;;
7450;SDS011;3767;42.688;23.360;2022-08-01T00:26:38;7.65;;;6.60;;
7450;SDS011;3767;42.688;23.360;2022-08-01T00:29:04;7.18;;;6.45;;
7450;SDS011;3767;42.688;23.360;2022-08-01T00:31:30;6.78;;;6.28;;
7450;SDS011;3767;42.688;23.360;2022-08-01T00:33:58;7.07;;;6.47;;
7450;SDS011;3767;42.688;23.360;2022-08-01T00:36:25;11.48;;;7.03;;
7450;SDS011;3767;42.688;23.360;2022-08-01T00:38:51;7.32;;;6.72;;
7450;SDS011;3767;42.688;23.360;2022-08-01T00:41:18;6.95;;;6.35;;
7450;SDS011;3767;42.688;23.360;2022-08-01T00:43:44;7.07;;;6.57;;
7450;SDS011;3767;42.688;23.360;2022-08-01T00:46:11;7.32;;;6.78;;
7450;SDS011;3767;42.688;23.360;2022-08-01T00:48:37;8.40;;;7.65;;
7450;SDS011;3767;42.688;23.360;2022-08-01T00:51:05;7.35;;;6.82;;
7450;SDS011;3767;42.688;23.360;2022-08-01T00:53:33;6.97;;;6.45;;
7450;SDS011;3767;42.688;23.360;2022-08-01T00:55:59;7.20;;;6.18;;
7450;SDS011;3767;42.688;23.360;2022-08-01T00:58:26;7.00;;;6.20;;
7450;SDS011;3767;42.688;23.360;2022-08-01T01:00:55;6.43;;;5.82;;
7450;SDS011;3767;42.688;23.360;2022-08-01T01:03:22;5.70;;;5.38;;
7450;SDS011;3767;42.688;23.360;2022-08-01T01:05:51;6.57;;;6.07;;
7450;SDS011;3767;42.688;23.360;2022-08-01T01:08:22;6.32;;;5.82;;
7450;SDS011;3767;42.688;23.360;2022-08-01T01:10:52;6.30;;;5.70;;
7450;SDS011;3767;42.688;23.360;2022-08-01T01:13:22;5.73;;;5.33;;
7450;SDS011;3767;42.688;23.360;2022-08-01T01:15:50;6.07;;;5.67;;
7450;SDS011;3767;42.688;23.360;2022-08-01T01:18:19;6.37;;;5.83;;
7450;SDS011;3767;42.688;23.360;2022-08-01T01:20:48;6.43;;;5.80;;
7450;SDS011;3767;42.688;23.360;2022-08-01T01:26:11;6.27;;;5.77;;
7450;SDS011;3767;42.688;23.360;2022-08-01T01:28:52;6.40;;;5.90;;
7450;SDS011;3767;42.688;23.360;2022-08-01T01:31:21;5.90;;;5.57;;
7450;SDS011;3767;42.688;23.360;2022-08-01T01:33:50;5.63;;;5.23;;
7450;SDS011;3767;42.688;23.360;2022-08-01T01:36:16;5.97;;;5.47;;
7450;SDS011;3767;42.688;23.360;2022-08-01T01:38:45;5.50;;;5.20;;
7450;SDS011;3767;42.688;23.360;2022-08-01T01:41:13;5.80;;;5.40;;
7450;SDS011;3767;42.688;23.360;2022-08-01T01:43:40;5.80;;;5.30;;
7450;SDS011;3767;42.688;23.360;2022-08-01T01:46:09;5.80;;;5.23;;
7450;SDS011;3767;42.688;23.360;2022-08-01T01:48:35;5.53;;;5.13;;
7450;SDS011;3767;42.688;23.360;2022-08-01T01:51:03;5.27;;;4.90;;
7450;SDS011;3767;42.688;23.360;2022-08-01T01:53:29;5.40;;;5.00;;
7450;SDS011;3767;42.688;23.360;2022-08-01T01:55:58;5.17;;;4.67;;
7450;SDS011;3767;42.688;23.360;2022-08-01T01:58:25;5.23;;;4.83;;
7450;SDS011;3767;42.688;23.360;2022-08-01T02:00:53;5.13;;;4.33;;
7450;SDS011;3767;42.688;23.360;2022-08-01T02:03:22;5.37;;;4.87;;
7450;SDS011;3767;42.688;23.360;2022-08-01T02:05:49;4.67;;;4.27;;
7450;SDS011;3767;42.688;23.360;2022-08-01T02:08:17;4.73;;;4.40;;
7450;SDS011;3767;42.688;23.360;2022-08-01T02:10:44;4.78;;;4.47;;
7450;SDS011;3767;42.688;23.360;2022-08-01T02:13:32;4.80;;;4.50;;
7450;SDS011;3767;42.688;23.360;2022-08-01T02:16:00;4.27;;;3.97;;
7450;SDS011;3767;42.688;23.360;2022-08-01T02:18:28;4.97;;;4.57;;
7450;SDS011;3767;42.688;23.360;2022-08-01T02:20:55;4.67;;;3.90;;
7450;SDS011;3767;42.688;23.360;2022-08-01T02:23:24;4.73;;;4.33;;
7450;SDS011;3767;42.688;23.360;2022-08-01T02:25:53;4.57;;;4.17;;
7450;SDS011;3767;42.688;23.360;2022-08-01T02:28:22;4.53;;;4.23;;
7450;SDS011;3767;42.688;23.360;2022-08-01T02:30:53;5.33;;;4.10;;
7450;SDS011;3767;42.688;23.360;2022-08-01T02:33:21;4.30;;;4.00;;
7450;SDS011;3767;42.688;23.360;2022-08-01T02:35:52;4.13;;;3.63;;
7450;SDS011;3767;42.688;23.360;2022-08-01T02:38:20;4.30;;;4.00;;
7450;SDS011;3767;42.688;23.360;2022-08-01T02:40:48;4.80;;;4.10;;
7450;SDS011;3767;42.688;23.360;2022-08-01T02:43:17;4.60;;;4.17;;
7450;SDS011;3767;42.688;23.360;2022-08-01T02:45:45;4.20;;;3.90;;
7450;SDS011;3767;42.688;23.360;2022-08-01T02:48:14;6.50;;;4.37;;
7450;SDS011;3767;42.688;23.360;2022-08-01T02:50:42;6.37;;;3.90;;
7450;SDS011;3767;42.688;23.360;2022-08-01T02:53:12;4.47;;;4.10;;
7450;SDS011;3767;42.688;23.360;2022-08-01T02:55:39;4.47;;;4.10;;
7450;SDS011;3767;42.688;23.360;2022-08-01T02:58:06;5.30;;;4.40;;
7450;SDS011;3767;42.688;23.360;2022-08-01T03:00:33;5.35;;;4.10;;
7450;SDS011;3767;42.688;23.360;2022-08-01T03:03:00;4.10;;;3.80;;
7450;SDS011;3767;42.688;23.360;2022-08-01T03:05:27;3.87;;;3.60;;
7450;SDS011;3767;42.688;23.360;2022-08-01T03:07:55;5.03;;;4.10;;
7450;SDS011;3767;42.688;23.360;2022-08-01T03:10:23;4.40;;;4.00;;
7450;SDS011;3767;42.688;23.360;2022-08-01T03:12:50;4.30;;;4.10;;
7450;SDS011;3767;42.688;23.360;2022-08-01T03:15:17;5.43;;;4.93;;
7450;SDS011;3767;42.688;23.360;2022-08-01T03:17:45;10.53;;;8.57;;
7450;SDS011;3767;42.688;23.360;2022-08-01T03:20:14;11.80;;;8.67;;
7450;SDS011;3767;42.688;23.360;2022-08-01T03:22:40;7.47;;;6.77;;
7450;SDS011;3767;42.688;23.360;2022-08-01T03:25:09;7.80;;;7.03;;
7450;SDS011;3767;42.688;23.360;2022-08-01T03:27:37;6.93;;;6.37;;
7450;SDS011;3767;42.688;23.360;2022-08-01T03:30:06;7.33;;;6.50;;
7450;SDS011;3767;42.688;23.360;2022-08-01T03:32:33;7.00;;;6.13;;
7450;SDS011;3767;42.688;23.360;2022-08-01T03:34:59;6.57;;;5.97;;
7450;SDS011;3767;42.688;23.360;2022-08-01T03:37:26;6.50;;;5.90;;
7450;SDS011;3767;42.688;23.360;2022-08-01T03:39:55;7.47;;;4.90;;
7450;SDS011;3767;42.688;23.360;2022-08-01T03:42:24;4.97;;;4.57;;
7450;SDS011;3767;42.688;23.360;2022-08-01T03:44:53;4.03;;;3.73;;
7450;SDS011;3767;42.688;23.360;2022-08-01T03:47:21;6.47;;;4.83;;
7450;SDS011;3767;42.688;23.360;2022-08-01T03:49:49;4.77;;;4.43;;
7450;SDS011;3767;42.688;23.360;2022-08-01T03:52:17;5.50;;;4.70;;
7450;SDS011;3767;42.688;23.360;2022-08-01T03:54:45;5.73;;;5.10;;
7450;SDS011;3767;42.688;23.360;2022-08-01T03:57:12;4.67;;;4.37;;
7450;SDS011;3767;42.688;23.360;2022-08-01T03:59:39;4.93;;;4.53;;
7450;SDS011;3767;42.688;23.360;2022-08-01T04:02:07;6.93;;;5.50;;
7450;SDS011;3767;42.688;23.360;2022-08-01T04:04:34;4.77;;;4.37;;
7450;SDS011;3767;42.688;23.360;2022-08-01T04:07:01;5.50;;;5.00;;
7450;SDS011;3767;42.688;23.360;2022-08-01T04:09:32;4.93;;;4.53;;
7450;SDS011;3767;42.688;23.360;2022-08-01T04:11:59;8.37;;;5.00;;
7450;SDS011;3767;42.688;23.360;2022-08-01T04:14:26;5.13;;;4.73;;
7450;SDS011;3767;42.688;23.360;2022-08-01T04:16:52;6.90;;;4.73;;
7450;SDS011;3767;42.688;23.360;2022-08-01T04:19:20;6.47;;;5.00;;
7450;SDS011;3767;42.688;23.360;2022-08-01T04:21:47;6.07;;;5.13;;
7450;SDS011;3767;42.688;23.360;2022-08-01T04:24:14;5.90;;;5.40;;
7450;SDS011;3767;42.688;23.360;2022-08-01T04:26:41;5.73;;;5.10;;
7450;SDS011;3767;42.688;23.360;2022-08-01T04:29:09;5.50;;;5.00;;
7450;SDS011;3767;42.688;23.360;2022-08-01T04:31:37;13.07;;;7.77;;
7450;SDS011;3767;42.688;23.360;2022-08-01T04:34:05;12.47;;;10.23;;
7450;SDS011;3767;42.688;23.360;2022-08-01T04:36:34;15.07;;;10.43;;
7450;SDS011;3767;42.688;23.360;2022-08-01T04:39:02;10.17;;;7.97;;
7450;SDS011;3767;42.688;23.360;2022-08-01T04:41:30;9.17;;;7.03;;
7450;SDS011;3767;42.688;23.360;2022-08-01T04:43:57;8.37;;;5.83;;
7450;SDS011;3767;42.688;23.360;2022-08-01T04:46:25;7.27;;;6.57;;
7450;SDS011;3767;42.688;23.360;2022-08-01T04:48:52;8.83;;;6.70;;
7450;SDS011;3767;42.688;23.360;2022-08-01T04:51:19;12.70;;;7.23;;
7450;SDS011;3767;42.688;23.360;2022-08-01T04:53:48;9.10;;;6.57;;
7450;SDS011;3767;42.688;23.360;2022-08-01T04:56:16;7.57;;;6.55;;
7450;SDS011;3767;42.688;23.360;2022-08-01T04:58:42;7.72;;;6.35;;
7450;SDS011;3767;42.688;23.360;2022-08-01T05:01:09;8.87;;;6.27;;
7450;SDS011;3767;42.688;23.360;2022-08-01T05:03:36;9.17;;;6.23;;
7450;SDS011;3767;42.688;23.360;2022-08-01T05:06:03;10.93;;;6.97;;
7450;SDS011;3767;42.688;23.360;2022-08-01T05:08:29;10.80;;;6.18;;
7450;SDS011;3767;42.688;23.360;2022-08-01T05:10:57;6.57;;;5.78;;
7450;SDS011;3767;42.688;23.360;2022-08-01T05:13:23;6.50;;;5.82;;
7450;SDS011;3767;42.688;23.360;2022-08-01T05:15:50;6.90;;;5.70;;
7450;SDS011;3767;42.688;23.360;2022-08-01T05:18:17;8.88;;;6.25;;
7450;SDS011;3767;42.688;23.360;2022-08-01T05:20:44;6.97;;;5.38;;
7450;SDS011;3767;42.688;23.360;2022-08-01T05:23:10;9.05;;;5.80;;
7450;SDS011;3767;42.688;23.360;2022-08-01T05:25:37;8.05;;;5.45;;
7450;SDS011;3767;42.688;23.360;2022-08-01T05:28:05;6.63;;;4.93;;
7450;SDS011;3767;42.688;23.360;2022-08-01T05:30:32;5.32;;;4.82;;
7450;SDS011;3767;42.688;23.360;2022-08-01T05:32:58;7.78;;;5.10;;
7450;SDS011;3767;42.688;23.360;2022-08-01T05:35:25;6.47;;;4.45;;
7450;SDS011;3767;42.688;23.360;2022-08-01T05:37:51;5.60;;;4.53;;
7450;SDS011;3767;42.688;23.360;2022-08-01T05:40:18;4.95;;;4.45;;
7450;SDS011;3767;42.688;23.360;2022-08-01T05:42:44;7.07;;;4.70;;
7450;SDS011;3767;42.688;23.360;2022-08-01T05:45:12;6.45;;;4.43;;
7450;SDS011;3767;42.688;23.360;2022-08-01T05:47:39;4.13;;;3.72;;
7450;SDS011;3767;42.688;23.360;2022-08-01T05:50:05;4.18;;;3.83;;
7450;SDS011;3767;42.688;23.360;2022-08-01T05:52:32;6.15;;;3.90;;
7450;SDS011;3767;42.688;23.360;2022-08-01T05:54:58;4.72;;;3.78;;
7450;SDS011;3767;42.688;23.360;2022-08-01T05:57:25;7.90;;;4.40;;
7450;SDS011;3767;42.688;23.360;2022-08-01T05:59:51;4.47;;;4.10;;
7450;SDS011;3767;42.688;23.360;2022-08-01T06:02:19;3.80;;;3.60;;
7450;SDS011;3767;42.688;23.360;2022-08-01T06:04:46;4.43;;;4.03;;
7450;SDS011;3767;42.688;23.360;2022-08-01T06:07:13;5.00;;;4.60;;
7450;SDS011;3767;42.688;23.360;2022-08-01T06:09:39;4.10;;;3.83;;
7450;SDS011;3767;42.688;23.360;2022-08-01T06:12:06;4.65;;;3.60;;
7450;SDS011;3767;42.688;23.360;2022-08-01T06:14:33;4.18;;;3.58;;
7450;SDS011;3767;42.688;23.360;2022-08-01T06:16:59;4.53;;;3.83;;
7450;SDS011;3767;42.688;23.360;2022-08-01T06:19:27;5.32;;;4.82;;
7450;SDS011;3767;42.688;23.360;2022-08-01T06:21:53;5.45;;;4.85;;
7450;SDS011;3767;42.688;23.360;2022-08-01T06:24:20;4.53;;;4.18;;
7450;SDS011;3767;42.688;23.360;2022-08-01T06:26:48;3.95;;;3.70;;
7450;SDS011;3767;42.688;23.360;2022-08-01T06:29:14;4.03;;;3.72;;
7450;SDS011;3767;42.688;23.360;2022-08-01T06:31:41;3.90;;;3.65;;
7450;SDS011;3767;42.688;23.360;2022-08-01T06:34:07;5.55;;;3.90;;
7450;SDS011;3767;42.688;23.360;2022-08-01T06:36:35;5.05;;;4.60;;
7450;SDS011;3767;42.688;23.360;2022-08-01T06:39:01;4.60;;;3.78;;
7450;SDS011;3767;42.688;23.360;2022-08-01T06:41:28;3.90;;;3.58;;
7450;SDS011;3767;42.688;23.360;2022-08-01T06:43:54;3.15;;;3.00;;
7450;SDS011;3767;42.688;23.360;2022-08-01T06:46:21;4.60;;;3.50;;
7450;SDS011;3767;42.688;23.360;2022-08-01T06:48:47;4.35;;;3.95;;
7450;SDS011;3767;42.688;23.360;2022-08-01T06:51:14;4.10;;;2.90;;
7450;SDS011;3767;42.688;23.360;2022-08-01T06:53:44;3.33;;;3.03;;
7450;SDS011;3767;42.688;23.360;2022-08-01T06:56:10;3.15;;;2.90;;
7450;SDS011;3767;42.688;23.360;2022-08-01T06:58:37;3.33;;;3.00;;
7450;SDS011;3767;42.688;23.360;2022-08-01T07:01:04;3.63;;;3.15;;
7450;SDS011;3767;42.688;23.360;2022-08-01T07:03:32;3.60;;;3.30;;
7450;SDS011;3767;42.688;23.360;2022-08-01T07:05:58;3.40;;;3.10;;
7450;SDS011;3767;42.688;23.360;2022-08-01T07:08:25;3.40;;;3.20;;
7450;SDS011;3767;42.688;23.360;2022-08-01T07:10:53;3.20;;;3.10;;
7450;SDS011;3767;42.688;23.360;2022-08-01T07:13:19;6.65;;;3.30;;
7450;SDS011;3767;42.688;23.360;2022-08-01T07:15:50;3.22;;;3.03;;
7450;SDS011;3767;42.688;23.360;2022-08-01T07:18:16;3.67;;;3.30;;
7450;SDS011;3767;42.688;23.360;2022-08-01T07:20:43;3.92;;;3.40;;
7450;SDS011;3767;42.688;23.360;2022-08-01T07:23:11;3.50;;;3.30;;
7450;SDS011;3767;42.688;23.360;2022-08-01T07:25:37;3.70;;;3.40;;
7450;SDS011;3767;42.688;23.360;2022-08-01T07:28:05;3.13;;;2.92;;
7450;SDS011;3767;42.688;23.360;2022-08-01T07:30:32;5.03;;;3.53;;
7450;SDS011;3767;42.688;23.360;2022-08-01T07:32:58;4.18;;;3.42;;
7450;SDS011;3767;42.688;23.360;2022-08-01T07:35:25;3.83;;;3.63;;
7450;SDS011;3767;42.688;23.360;2022-08-01T07:37:51;3.40;;;3.20;;
7450;SDS011;3767;42.688;23.360;2022-08-01T07:40:18;3.20;;;3.00;;
7450;SDS011;3767;42.688;23.360;2022-08-01T07:42:45;3.78;;;3.58;;
7450;SDS011;3767;42.688;23.360;2022-08-01T07:45:13;5.32;;;3.30;;
7450;SDS011;3767;42.688;23.360;2022-08-01T07:47:40;3.70;;;3.40;;
7450;SDS011;3767;42.688;23.360;2022-08-01T07:50:07;7.05;;;3.60;;
7450;SDS011;3767;42.688;23.360;2022-08-01T07:52:33;3.40;;;3.20;;
7450;SDS011;3767;42.688;23.360;2022-08-01T07:55:00;6.38;;;3.33;;
7450;SDS011;3767;42.688;23.360;2022-08-01T07:57:27;5.32;;;3.38;;
7450;SDS011;3767;42.688;23.360;2022-08-01T07:59:53;3.95;;;3.55;;
7450;SDS011;3767;42.688;23.360;2022-08-01T08:02:21;3.90;;;3.65;;
7450;SDS011;3767;42.688;23.360;2022-08-01T08:04:48;4.57;;;3.50;;
7450;SDS011;3767;42.688;23.360;2022-08-01T08:07:14;3.75;;;3.53;;
7450;SDS011;3767;42.688;23.360;2022-08-01T08:09:41;4.18;;;3.88;;
7450;SDS011;3767;42.688;23.360;2022-08-01T08:12:08;3.88;;;3.58;;
7450;SDS011;3767;42.688;23.360;2022-08-01T08:14:34;4.22;;;3.92;;
7450;SDS011;3767;42.688;23.360;2022-08-01T08:17:01;4.00;;;3.80;;
7450;SDS011;3767;42.688;23.360;2022-08-01T08:19:29;4.13;;;3.75;;
7450;SDS011;3767;42.688;23.360;2022-08-01T08:21:58;10.45;;;3.80;;
7450;SDS011;3767;42.688;23.360;2022-08-01T08:24:24;4.22;;;3.92;;
7450;SDS011;3767;42.688;23.360;2022-08-01T08:26:52;3.83;;;3.42;;
7450;SDS011;3767;42.688;23.360;2022-08-01T08:29:19;4.07;;;3.67;;
7450;SDS011;3767;42.688;23.360;2022-08-01T08:31:46;4.22;;;3.80;;
7450;SDS011;3767;42.688;23.360;2022-08-01T08:34:13;4.13;;;3.72;;
7450;SDS011;3767;42.688;23.360;2022-08-01T08:36:41;3.80;;;3.50;;
7450;SDS011;3767;42.688;23.360;2022-08-01T08:39:07;3.78;;;3.40;;
7450;SDS011;3767;42.688;23.360;2022-08-01T08:41:34;3.80;;;3.50;;
7450;SDS011;3767;42.688;23.360;2022-08-01T08:44:01;5.18;;;3.58;;
7450;SDS011;3767;42.688;23.360;2022-08-01T08:46:27;7.40;;;3.53;;
7450;SDS011;3767;42.688;23.360;2022-08-01T08:48:54;3.60;;;3.38;;
7450;SDS011;3767;42.688;23.360;2022-08-01T08:51:21;3.78;;;3.58;;
7450;SDS011;3767;42.688;23.360;2022-08-01T08:53:51;3.60;;;3.40;;
7450;SDS011;3767;42.688;23.360;2022-08-01T08:56:17;3.97;;;3.58;;
7450;SDS011;3767;42.688;23.360;2022-08-01T08:58:44;4.22;;;3.50;;
7450;SDS011;3767;42.688;23.360;2022-08-01T09:01:11;3.85;;;3.22;;
7450;SDS011;3767;42.688;23.360;2022-08-01T09:03:38;4.35;;;3.30;;
7450;SDS011;3767;42.688;23.360;2022-08-01T09:06:05;3.58;;;3.38;;
7450;SDS011;3767;42.688;23.360;2022-08-01T09:08:32;3.60;;;3.30;;
7450;SDS011;3767;42.688;23.360;2022-08-01T09:11:00;5.47;;;3.40;;
7450;SDS011;3767;42.688;23.360;2022-08-01T09:13:27;3.58;;;3.28;;
7450;SDS011;3767;42.688;23.360;2022-08-01T09:15:54;3.47;;;3.17;;
7450;SDS011;3767;42.688;23.360;2022-08-01T09:18:27;3.65;;;3.45;;
7450;SDS011;3767;42.688;23.360;2022-08-01T09:21:10;4.72;;;3.70;;
7450;SDS011;3767;42.688;23.360;2022-08-01T09:23:37;3.58;;;3.38;;
7450;SDS011;3767;42.688;23.360;2022-08-01T09:26:06;4.05;;;3.55;;
7450;SDS011;3767;42.688;23.360;2022-08-01T09:28:34;7.30;;;3.55;;
7450;SDS011;3767;42.688;23.360;2022-08-01T09:31:05;3.75;;;3.22;;
7450;SDS011;3767;42.688;23.360;2022-08-01T09:33:45;5.80;;;3.75;;
7450;SDS011;3767;42.688;23.360;2022-08-01T09:36:12;3.88;;;3.42;;
7450;SDS011;3767;42.688;23.360;2022-08-01T09:38:38;3.42;;;3.13;;
7450;SDS011;3767;42.688;23.360;2022-08-01T09:41:06;3.85;;;3.55;;
7450;SDS011;3767;42.688;23.360;2022-08-01T09:43:33;4.82;;;3.40;;
7450;SDS011;3767;42.688;23.360;2022-08-01T09:46:03;4.80;;;3.47;;
7450;SDS011;3767;42.688;23.360;2022-08-01T09:48:30;3.47;;;3.28;;
7450;SDS011;3767;42.688;23.360;2022-08-01T09:50:58;4.32;;;3.30;;
7450;SDS011;3767;42.688;23.360;2022-08-01T09:53:24;3.75;;;3.00;;
7450;SDS011;3767;42.688;23.360;2022-08-01T09:55:51;3.40;;;3.20;;
7450;SDS011;3767;42.688;23.360;2022-08-01T09:58:20;3.63;;;3.35;;
7450;SDS011;3767;42.688;23.360;2022-08-01T10:00:57;4.88;;;3.40;;
7450;SDS011;3767;42.688;23.360;2022-08-01T10:03:25;3.90;;;3.60;;
7450;SDS011;3767;42.688;23.360;2022-08-01T10:05:52;3.20;;;3.10;;
7450;SDS011;3767;42.688;23.360;2022-08-01T10:08:19;3.55;;;3.35;;
7450;SDS011;3767;42.688;23.360;2022-08-01T10:13:30;4.78;;;3.53;;
7450;SDS011;3767;42.688;23.360;2022-08-01T10:15:56;3.72;;;3.55;;
7450;SDS011;3767;42.688;23.360;2022-08-01T10:18:23;3.95;;;3.65;;
7450;SDS011;3767;42.688;23.360;2022-08-01T10:20:49;3.90;;;3.63;;
7450;SDS011;3767;42.688;23.360;2022-08-01T10:23:16;4.68;;;3.97;;
7450;SDS011;3767;42.688;23.360;2022-08-01T10:25:43;6.20;;;3.60;;
7450;SDS011;3767;42.688;23.360;2022-08-01T10:28:12;8.43;;;3.78;;
7450;SDS011;3767;42.688;23.360;2022-08-01T10:30:42;5.32;;;3.95;;
7450;SDS011;3767;42.688;23.360;2022-08-01T10:33:09;4.30;;;3.42;;
7450;SDS011;3767;42.688;23.360;2022-08-01T10:35:36;3.95;;;3.60;;
7450;SDS011;3767;42.688;23.360;2022-08-01T10:38:04;3.95;;;3.47;;
7450;SDS011;3767;42.688;23.360;2022-08-01T10:40:31;4.05;;;3.65;;
7450;SDS011;3767;42.688;23.360;2022-08-01T10:42:58;4.13;;;3.60;;
7450;SDS011;3767;42.688;23.360;2022-08-01T10:45:25;3.50;;;3.10;;
7450;SDS011;3767;42.688;23.360;2022-08-01T10:47:56;3.50;;;3.30;;
7450;SDS011;3767;42.688;23.360;2022-08-01T10:50:27;3.67;;;3.45;;
7450;SDS011;3767;42.688;23.360;2022-08-01T10:53:06;5.78;;;3.47;;
7450;SDS011;3767;42.688;23.360;2022-08-01T10:55:44;3.30;;;3.00;;
7450;SDS011;3767;42.688;23.360;2022-08-01T10:58:11;3.33;;;3.00;;
7450;SDS011;3767;42.688;23.360;2022-08-01T11:00:37;4.30;;;3.08;;
7450;SDS011;3767;42.688;23.360;2022-08-01T11:03:05;3.00;;;2.80;;
7450;SDS011;3767;42.688;23.360;2022-08-01T11:05:32;4.45;;;3.40;;
7450;SDS011;3767;42.688;23.360;2022-08-01T11:08:01;3.50;;;3.30;;
7450;SDS011;3767;42.688;23.360;2022-08-01T11:10:30;3.13;;;2.92;;
7450;SDS011;3767;42.688;23.360;2022-08-01T11:12:59;7.07;;;3.50;;
7450;SDS011;3767;42.688;23.360;2022-08-01T11:15:28;3.60;;;3.30;;
7450;SDS011;3767;42.688;23.360;2022-08-01T11:17:55;3.97;;;3.78;;
7450;SDS011;3767;42.688;23.360;2022-08-01T11:20:24;3.42;;;3.20;;
7450;SDS011;3767;42.688;23.360;2022-08-01T11:29:10;4.28;;;3.85;;
7450;SDS011;3767;42.688;23.360;2022-08-01T11:31:33;6.63;;;3.40;;
7450;SDS011;3767;42.688;23.360;2022-08-01T11:33:59;4.50;;;4.10;;
7450;SDS011;3767;42.688;23.360;2022-08-01T11:36:27;4.90;;;4.03;;
7450;SDS011;3767;42.688;23.360;2022-08-01T11:41:39;3.50;;;3.30;;
7450;SDS011;3767;42.688;23.360;2022-08-01T11:44:06;4.20;;;3.90;;
7450;SDS011;3767;42.688;23.360;2022-08-01T11:46:56;5.47;;;3.90;;
7450;SDS011;3767;42.688;23.360;2022-08-01T11:52:09;3.65;;;3.40;;
7450;SDS011;3767;42.688;23.360;2022-08-01T11:54:37;4.03;;;3.72;;
7450;SDS011;3767;42.688;23.360;2022-08-01T11:57:04;3.50;;;3.30;;
7450;SDS011;3767;42.688;23.360;2022-08-01T11:59:38;3.50;;;3.25;;
7450;SDS011;3767;42.688;23.360;2022-08-01T12:02:14;4.60;;;3.10;;
7450;SDS011;3767;42.688;23.360;2022-08-01T12:04:44;3.78;;;3.58;;
7450;SDS011;3767;42.688;23.360;2022-08-01T12:07:15;4.00;;;3.65;;
7450;SDS011;3767;42.688;23.360;2022-08-01T12:09:42;4.20;;;3.90;;
7450;SDS011;3767;42.688;23.360;2022-08-01T12:12:08;4.03;;;3.83;;
7450;SDS011;3767;42.688;23.360;2022-08-01T12:14:35;4.47;;;3.95;;
7450;SDS011;3767;42.688;23.360;2022-08-01T12:17:02;4.60;;;4.20;;
7450;SDS011;3767;42.688;23.360;2022-08-01T12:19:28;4.63;;;4.30;;
7450;SDS011;3767;42.688;23.360;2022-08-01T12:22:05;4.97;;;4.47;;
7450;SDS011;3767;42.688;23.360;2022-08-01T12:24:33;5.82;;;4.72;;
7450;SDS011;3767;42.688;23.360;2022-08-01T12:27:00;4.72;;;4.43;;
7450;SDS011;3767;42.688;23.360;2022-08-01T12:29:33;4.70;;;4.40;;
7450;SDS011;3767;42.688;23.360;2022-08-01T12:31:59;4.72;;;4.38;;
7450;SDS011;3767;42.688;23.360;2022-08-01T12:34:27;4.97;;;4.28;;
7450;SDS011;3767;42.688;23.360;2022-08-01T12:36:54;4.55;;;4.15;;
7450;SDS011;3767;42.688;23.360;2022-08-01T12:39:20;4.72;;;4.43;;
7450;SDS011;3767;42.688;23.360;2022-08-01T12:41:49;5.68;;;4.25;;
7450;SDS011;3767;42.688;23.360;2022-08-01T12:44:15;4.65;;;4.35;;
7450;SDS011;3767;42.688;23.360;2022-08-01T12:46:42;6.38;;;4.50;;
7450;SDS011;3767;42.688;23.360;2022-08-01T12:49:09;8.52;;;4.53;;
7450;SDS011;3767;42.688;23.360;2022-08-01T12:51:36;6.05;;;4.50;;
7450;SDS011;3767;42.688;23.360;2022-08-01T12:54:02;4.53;;;4.22;;
7450;SDS011;3767;42.688;23.360;2022-08-01T12:56:32;4.55;;;4.22;;
7450;SDS011;3767;42.688;23.360;2022-08-01T12:59:00;5.20;;;4.40;;
7450;SDS011;3767;42.688;23.360;2022-08-01T13:01:27;5.20;;;4.68;;
7450;SDS011;3767;42.688;23.360;2022-08-01T13:03:57;5.60;;;4.78;;
7450;SDS011;3767;42.688;23.360;2022-08-01T13:06:27;7.55;;;4.78;;
7450;SDS011;3767;42.688;23.360;2022-08-01T13:08:54;5.22;;;4.72;;
7450;SDS011;3767;42.688;23.360;2022-08-01T13:11:21;4.78;;;4.38;;
7450;SDS011;3767;42.688;23.360;2022-08-01T13:13:48;4.80;;;4.50;;
7450;SDS011;3767;42.688;23.360;2022-08-01T13:16:17;4.88;;;4.10;;
7450;SDS011;3767;42.688;23.360;2022-08-01T13:18:47;4.45;;;4.15;;
7450;SDS011;3767;42.688;23.360;2022-08-01T13:21:16;4.60;;;4.20;;
7450;SDS011;3767;42.688;23.360;2022-08-01T13:26:36;4.07;;;3.88;;
7450;SDS011;3767;42.688;23.360;2022-08-01T13:29:03;4.28;;;3.92;;
7450;SDS011;3767;42.688;23.360;2022-08-01T13:31:33;4.80;;;4.22;;
7450;SDS011;3767;42.688;23.360;2022-08-01T13:34:00;4.07;;;3.80;;
7450;SDS011;3767;42.688;23.360;2022-08-01T13:36:26;4.55;;;4.25;;
7450;SDS011;3767;42.688;23.360;2022-08-01T13:38:53;4.40;;;4.10;;
7450;SDS011;3767;42.688;23.360;2022-08-01T13:41:37;3.70;;;3.50;;
7450;SDS011;3767;42.688;23.360;2022-08-01T13:44:04;4.00;;;3.80;;
7450;SDS011;3767;42.688;23.360;2022-08-01T13:46:35;4.00;;;3.80;;
7450;SDS011;3767;42.688;23.360;2022-08-01T13:49:02;4.60;;;4.30;;
7450;SDS011;3767;42.688;23.360;2022-08-01T13:51:29;4.30;;;4.00;;
7450;SDS011;3767;42.688;23.360;2022-08-01T13:53:55;4.07;;;3.78;;
7450;SDS011;3767;42.688;23.360;2022-08-01T13:56:22;3.90;;;3.60;;
7450;SDS011;3767;42.688;23.360;2022-08-01T13:58:48;3.72;;;3.53;;
7450;SDS011;3767;42.688;23.360;2022-08-01T14:01:15;3.75;;;3.47;;
7450;SDS011;3767;42.688;23.360;2022-08-01T14:03:43;4.10;;;3.78;;
7450;SDS011;3767;42.688;23.360;2022-08-01T14:06:11;3.88;;;3.67;;
7450;SDS011;3767;42.688;23.360;2022-08-01T14:08:39;4.22;;;3.92;;
7450;SDS011;3767;42.688;23.360;2022-08-01T14:11:06;3.78;;;3.47;;
7450;SDS011;3767;42.688;23.360;2022-08-01T14:13:32;3.67;;;3.38;;
7450;SDS011;3767;42.688;23.360;2022-08-01T14:16:02;4.60;;;4.22;;
7450;SDS011;3767;42.688;23.360;2022-08-01T14:18:29;5.15;;;4.78;;
7450;SDS011;3767;42.688;23.360;2022-08-01T14:20:57;6.07;;;5.50;;
7450;SDS011;3767;42.688;23.360;2022-08-01T14:23:24;5.22;;;4.60;;
7450;SDS011;3767;42.688;23.360;2022-08-01T14:25:51;5.20;;;4.90;;
7450;SDS011;3767;42.688;23.360;2022-08-01T14:28:17;4.40;;;4.15;;
7450;SDS011;3767;42.688;23.360;2022-08-01T14:30:45;4.43;;;3.80;;
7450;SDS011;3767;42.688;23.360;2022-08-01T14:33:12;5.18;;;4.80;;
7450;SDS011;3767;42.688;23.360;2022-08-01T14:35:39;5.97;;;5.47;;
7450;SDS011;3767;42.688;23.360;2022-08-01T14:38:06;6.25;;;5.78;;
7450;SDS011;3767;42.688;23.360;2022-08-01T14:40:33;3.72;;;3.50;;
7450;SDS011;3767;42.688;23.360;2022-08-01T14:43:00;3.40;;;3.30;;
7450;SDS011;3767;42.688;23.360;2022-08-01T14:45:27;3.70;;;3.50;;
7450;SDS011;3767;42.688;23.360;2022-08-01T14:47:53;4.90;;;4.40;;
7450;SDS011;3767;42.688;23.360;2022-08-01T14:50:20;6.85;;;5.03;;
7450;SDS011;3767;42.688;23.360;2022-08-01T14:52:49;6.70;;;5.03;;
7450;SDS011;3767;42.688;23.360;2022-08-01T14:55:17;4.75;;;4.35;;
7450;SDS011;3767;42.688;23.360;2022-08-01T14:57:43;3.97;;;3.55;;
7450;SDS011;3767;42.688;23.360;2022-08-01T15:00:10;3.90;;;3.60;;
7450;SDS011;3767;42.688;23.360;2022-08-01T15:02:38;3.40;;;3.20;;
7450;SDS011;3767;42.688;23.360;2022-08-01T15:05:05;4.00;;;3.80;;
7450;SDS011;3767;42.688;23.360;2022-08-01T15:07:32;4.05;;;3.67;;
7450;SDS011;3767;42.688;23.360;2022-08-01T15:09:59;3.47;;;3.28;;
7450;SDS011;3767;42.688;23.360;2022-08-01T15:12:27;3.85;;;3.58;;
7450;SDS011;3767;42.688;23.360;2022-08-01T15:14:53;3.70;;;3.38;;
7450;SDS011;3767;42.688;23.360;2022-08-01T15:17:20;4.00;;;3.30;;
7450;SDS011;3767;42.688;23.360;2022-08-01T15:19:48;3.92;;;3.60;;
7450;SDS011;3767;42.688;23.360;2022-08-01T15:22:14;3.45;;;3.33;;
7450;SDS011;3767;42.688;23.360;2022-08-01T15:24:41;4.28;;;3.50;;